EW3562 Weather Reports


Display with metric or nautical units.
time (UTC)temp
F
wind
direction
speed
MPH
gust
MPH
rain 1hr
in
rain 24hr
in
rain mn
in
humidity
%
barometer
mb
20210926070823 48 208 4.0 5.0 0.00 0.00 0.00 38 1032.1
20210926070322 47 99 0.0 1.0 0.00 0.00 0.00 39 1032.1
20210926065819 47 85 2.0 4.0 0.00 0.00 0.00 39 1032.1
20210926065318 51 293 0.0 3.0 0.00 0.00 0.00 35 1031.8
20210926064817 50 203 3.0 3.0 0.00 0.00 0.00 36 1032.0
20210926064312 49 29 1.0 2.0 0.00 0.00 0.00 37 1031.8
20210926063811 48 69 3.0 5.0 0.00 0.00 0.00 38 1031.7
20210926063309 49 60 0.0 2.0 0.00 0.00 0.00 37 1032.0
20210926062809 49 40 0.0 1.0 0.00 0.00 0.00 37 1032.1
20210926062308 51 26 4.0 4.0 0.00 0.00 0.00 35 1032.0
20210926061802 50 48 0.0 3.0 0.00 0.00 0.00 36 1032.0
20210926061259 49 62 4.0 5.0 0.00 0.00 0.00 36 1032.0
20210926060758 52 87 3.0 5.0 0.00 0.00 0.00 34 1032.0
20210926060257 51 114 1.0 3.0 0.00 0.00 0.00 35 1032.0
20210926055755 50 90 4.0 4.0 0.00 0.00 0.00 35 1031.8
20210926055254 51 73 3.0 5.0 0.00 0.00 0.00 34 1031.8
20210926054752 52 95 3.0 5.0 0.00 0.00 0.00 34 1032.0
20210926054251 50 90 1.0 4.0 0.00 0.00 0.00 36 1031.8
20210926053749 49 84 7.0 9.0 0.00 0.00 0.00 36 1031.8
20210926053247 52 94 3.0 7.0 0.00 0.00 0.00 34 1031.7
20210926052747 51 149 4.0 8.0 0.00 0.00 0.00 34 1031.7
20210926052245 49 85 7.0 9.0 0.00 0.00 0.00 36 1031.8
20210926051743 50 99 3.0 5.0 0.00 0.00 0.00 36 1031.6
20210926051243 54 113 3.0 5.0 0.00 0.00 0.00 33 1031.8
20210926050739 54 119 7.0 7.0 0.00 0.00 0.00 33 1031.7
20210926050237 55 112 2.0 4.0 0.00 0.00 0.00 32 1031.8
20210926045733 55 78 4.0 5.0 0.00 0.00 0.00 32 1031.8
20210926045230 55 116 3.0 4.0 0.00 0.00 0.00 32 1031.7
20210926044729 56 90 1.0 5.0 0.00 0.00 0.00 31 1031.4
20210926044228 55 162 5.0 7.0 0.00 0.00 0.00 32 1031.7
20210926043717 55 90 5.0 8.0 0.00 0.00 0.00 31 1031.8
20210926043217 56 24 7.0 7.0 0.00 0.00 0.00 31 1031.7
20210926042715 54 72 5.0 9.0 0.00 0.00 0.00 33 1031.7
20210926042213 54 239 2.0 3.0 0.00 0.00 0.00 32 1031.6
20210926041711 53 215 5.0 6.0 0.00 0.00 0.00 33 1031.4
20210926041210 54 214 5.0 7.0 0.00 0.00 0.00 32 1031.3
20210926040710 55 253 5.0 5.0 0.00 0.00 0.00 32 1031.6
20210926040208 55 223 4.0 5.0 0.00 0.00 0.00 32 1031.1
20210926035707 55 247 2.0 4.0 0.00 0.00 0.00 31 1031.4
20210926035206 55 213 3.0 4.0 0.00 0.00 0.00 31 1031.2
20210926034704 56 265 2.0 3.0 0.00 0.00 0.00 31 1031.1
20210926034203 57 61 2.0 3.0 0.00 0.00 0.00 29 1031.1
20210926033701 58 69 3.0 5.0 0.00 0.00 0.00 28 1031.1
20210926033159 59 99 3.0 5.0 0.00 0.00 0.00 28 1031.1
20210926032658 56 119 2.0 4.0 0.00 0.00 0.00 30 1031.1
20210926032157 56 123 2.0 5.0 0.00 0.00 0.00 30 1030.9
20210926031654 59 78 0.0 2.0 0.00 0.00 0.00 28 1031.2
20210926031152 59 90 0.0 0.0 0.00 0.00 0.00 28 1031.2
20210926030650 59 315 2.0 3.0 0.00 0.00 0.00 28 1030.8
20210926030150 58 328 2.0 2.0 0.00 0.00 0.00 28 1031.1
20210926025649 58 99 0.0 4.0 0.00 0.00 0.00 28 1030.9
20210926025147 59 21 4.0 4.0 0.00 0.00 0.00 27 1031.2
20210926024645 60 263 1.0 2.0 0.00 0.00 0.00 27 1030.9
20210926024145 59 202 0.0 3.0 0.00 0.00 0.00 28 1030.8
20210926023643 60 242 4.0 5.0 0.00 0.00 0.00 27 1030.8
20210926023140 59 207 4.0 5.0 0.00 0.00 0.00 28 1031.1
20210926022640 60 209 3.0 6.0 0.00 0.00 0.00 27 1030.9
20210926022138 62 186 0.0 2.0 0.00 0.00 0.00 25 1030.9
20210926021634 62 128 2.0 4.0 0.00 0.00 0.00 24 1030.7
20210926021133 63 108 2.0 4.0 0.00 0.00 0.00 23 1030.8
20210926020631 63 90 2.0 2.0 0.00 0.00 0.00 24 1030.7
20210926020129 63 135 0.0 3.0 0.00 0.00 0.00 24 1030.6
20210926015629 64 127 2.0 4.0 0.00 0.00 0.00 23 1030.7
20210926015127 64 160 1.0 4.0 0.00 0.00 0.00 23 1030.6
20210926014626 65 61 3.0 3.0 0.00 0.00 0.00 23 1030.6
20210926014124 64 90 0.0 2.0 0.00 0.00 0.00 24 1030.7
20210926013624 64 114 0.0 3.0 0.00 0.00 0.00 24 1030.4
20210926013122 64 294 0.0 0.0 0.00 0.00 0.00 24 1030.4
20210926012620 65 147 3.0 4.0 0.00 0.00 0.00 24 1030.3
20210926012118 64 212 2.0 2.0 0.00 0.00 0.00 26 1030.6
20210926011617 64 180 0.0 3.0 0.00 0.00 0.00 26 1030.6
20210926011117 64 206 3.0 4.0 0.00 0.00 0.00 26 1030.4
20210926010616 64 254 3.0 4.0 0.00 0.00 0.00 26 1030.4
20210926010115 65 246 3.0 5.0 0.00 0.00 0.00 25 1030.4
20210926005613 66 270 3.0 6.0 0.00 0.00 0.00 25 1030.3
20210926005111 67 301 4.0 9.0 0.00 0.00 0.00 24 1030.0
20210926004609 68 273 3.0 6.0 0.00 0.00 0.00 23 1030.3
20210926004108 69 293 6.0 9.0 0.00 0.00 0.00 22 1030.3
20210926003604 69 275 6.0 8.0 0.00 0.00 0.00 23 1030.2
20210926003103 70 312 6.0 10.0 0.00 0.00 0.00 22 1030.2
20210926002603 71 281 5.0 10.0 0.00 0.00 0.00 22 1030.0
20210926002101 71 305 8.0 11.0 0.00 0.00 0.00 21 1029.9
20210926001600 72 294 6.0 10.0 0.00 0.00 0.00 20 1029.9
20210926001059 72 309 8.0 15.0 0.00 0.00 0.00 20 1029.9
20210926000558 72 324 9.0 16.0 0.00 0.00 0.00 19 1029.9
20210926000056 73 315 8.0 16.0 0.00 0.00 0.00 19 1029.8
20210925235555 74 329 8.0 12.0 0.00 0.00 0.00 19 1029.8
20210925235053 74 318 13.0 13.0 0.00 0.00 0.00 19 1029.9
20210925234552 73 339 9.0 15.0 0.00 0.00 0.00 19 1029.7
20210925234050 74 292 10.0 13.0 0.00 0.00 0.00 18 1029.8
20210925233550 75 319 11.0 17.0 0.00 0.00 0.00 17 1029.7
20210925233049 74 2 4.0 11.0 0.00 0.00 0.00 18 1029.9
20210925232548 74 331 9.0 18.0 0.00 0.00 0.00 18 1030.0
20210925232047 75 345 8.0 12.0 0.00 0.00 0.00 17 1029.7
20210925231542 75 344 10.0 13.0 0.00 0.00 0.00 18 1029.9
20210925231041 74 338 6.0 17.0 0.00 0.00 0.00 17 1030.2
20210925230540 75 320 9.0 15.0 0.00 0.00 0.00 17 1030.0
20210925230040 74 352 9.0 19.0 0.00 0.00 0.00 17 1030.0
20210925225540 75 3 5.0 13.0 0.00 0.00 0.00 18 1030.0
20210925225038 75 308 15.0 19.0 0.00 0.00 0.00 18 1030.2
20210925224536 75 311 9.0 19.0 0.00 0.00 0.00 17 1030.0
20210925224034 75 342 12.0 14.0 0.00 0.00 0.00 17 1030.0
20210925223533 76 345 7.0 10.0 0.00 0.00 0.00 17 1030.0
20210925223031 75 8 8.0 14.0 0.00 0.00 0.00 17 1030.0
20210925222531 76 11 9.0 17.0 0.00 0.00 0.00 17 1030.0
20210925222029 76 296 6.0 12.0 0.00 0.00 0.00 17 1030.2
20210925221528 76 304 3.0 18.0 0.00 0.00 0.00 17 1030.3
20210925221026 76 313 10.0 11.0 0.00 0.00 0.00 17 1030.0
20210925220525 76 5 9.0 11.0 0.00 0.00 0.00 17 1030.3
20210925220022 76 278 13.0 20.0 0.00 0.00 0.00 17 1029.9
20210925215521 76 281 13.0 15.0 0.00 0.00 0.00 17 1030.2
20210925215016 75 325 9.0 15.0 0.00 0.00 0.00 17 1030.4
20210925214517 77 282 7.0 12.0 0.00 0.00 0.00 17 1030.7
20210925214015 76 346 8.0 19.0 0.00 0.00 0.00 17 1030.4
20210925213513 76 322 11.0 17.0 0.00 0.00 0.00 17 1030.8
20210925213014 76 285 7.0 10.0 0.00 0.00 0.00 17 1030.6
20210925212512 76 340 12.0 15.0 0.00 0.00 0.00 17 1030.6
20210925212011 76 274 3.0 5.0 0.00 0.00 0.00 17 1030.7
20210925211511 75 322 7.0 15.0 0.00 0.00 0.00 18 1030.8
20210925211011 75 343 0.0 9.0 0.00 0.00 0.00 18 1030.7
20210925210510 74 325 8.0 15.0 0.00 0.00 0.00 18 1030.9
20210925210009 75 328 2.0 10.0 0.00 0.00 0.00 18 1031.1
20210925205507 74 320 8.0 13.0 0.00 0.00 0.00 19 1030.9
20210925205005 76 353 4.0 7.0 0.00 0.00 0.00 18 1031.3
20210925204503 75 339 11.0 11.0 0.00 0.00 0.00 18 1031.2
20210925204001 75 315 2.0 11.0 0.00 0.00 0.00 19 1031.3
20210925203459 75 356 5.0 11.0 0.00 0.00 0.00 18 1031.2
20210925202958 74 3 5.0 10.0 0.00 0.00 0.00 19 1031.4
20210925202450 74 24 8.0 10.0 0.00 0.00 0.00 19 1031.2
20210925201951 74 346 9.0 13.0 0.00 0.00 0.00 19 1031.4
20210925201450 75 0 10.0 13.0 0.00 0.00 0.00 20 1031.7
20210925200947 74 344 5.0 11.0 0.00 0.00 0.00 19 1032.0
20210925200446 75 322 8.0 11.0 0.00 0.00 0.00 19 1032.2
20210925195945 73 359 6.0 10.0 0.00 0.00 0.00 20 1032.0
20210925195443 72 300 6.0 11.0 0.00 0.00 0.00 20 1032.2
20210925194940 73 0 4.0 9.0 0.00 0.00 0.00 20 1032.5
20210925194438 72 2 3.0 7.0 0.00 0.00 0.00 20 1032.7
20210925193937 72 299 2.0 8.0 0.00 0.00 0.00 21 1032.7
20210925193436 72 304 4.0 12.0 0.00 0.00 0.00 20 1032.9
20210925192935 71 279 5.0 9.0 0.00 0.00 0.00 22 1033.2
20210925192434 71 291 5.0 10.0 0.00 0.00 0.00 21 1033.1
20210925191934 71 253 4.0 8.0 0.00 0.00 0.00 21 1033.4
20210925191433 71 237 6.0 12.0 0.00 0.00 0.00 22 1033.5
20210925190931 71 267 4.0 8.0 0.00 0.00 0.00 23 1033.6
20210925190430 68 306 5.0 12.0 0.00 0.00 0.00 23 1033.8
20210925185930 70 258 8.0 8.0 0.00 0.00 0.00 23 1033.8
20210925185427 70 322 6.0 8.0 0.00 0.00 0.00 24 1033.9
20210925184926 68 342 5.0 7.0 0.00 0.00 0.00 25 1034.0
20210925184425 67 310 7.0 10.0 0.00 0.00 0.00 26 1034.0
20210925183924 67 302 7.0 7.0 0.00 0.00 0.00 27 1034.0
20210925183423 67 283 6.0 8.0 0.00 0.00 0.00 27 1034.8
20210925182921 66 357 4.0 7.0 0.00 0.00 0.00 27 1034.6
20210925182420 65 300 5.0 9.0 0.00 0.00 0.00 28 1034.5
20210925181918 66 298 6.0 9.0 0.00 0.00 0.00 28 1034.6
20210925181415 65 306 6.0 8.0 0.00 0.00 0.00 28 1034.5
20210925180913 65 286 6.0 8.0 0.00 0.00 0.00 29 1034.9
20210925180413 63 275 4.0 11.0 0.00 0.00 0.00 29 1035.0
20210925175911 64 299 5.0 10.0 0.00 0.00 0.00 29 1035.0
20210925175411 62 283 2.0 10.0 0.00 0.00 0.00 31 1035.2
20210925174910 62 310 6.0 6.0 0.00 0.00 0.00 31 1035.4
20210925174409 62 272 7.0 10.0 0.00 0.00 0.00 31 1035.3
20210925173907 61 268 5.0 8.0 0.00 0.00 0.00 32 1035.4
20210925173407 61 90 0.0 9.0 0.00 0.00 0.00 33 1035.5
20210925172905 60 255 4.0 7.0 0.00 0.00 0.00 33 1035.4
20210925172404 60 264 6.0 7.0 0.00 0.00 0.00 34 1035.5
20210925171903 59 335 5.0 8.0 0.00 0.00 0.00 34 1035.8
20210925171401 58 263 4.0 6.0 0.00 0.00 0.00 35 1035.7
20210925170856 58 351 5.0 7.0 0.00 0.00 0.00 34 1036.2
20210925170348 57 331 1.0 5.0 0.00 0.00 0.00 36 1036.1
20210925165847 59 356 5.0 15.0 0.00 0.00 0.00 35 1035.9
20210925165344 57 346 2.0 7.0 0.00 0.00 0.00 37 1036.1
20210925164842 56 331 6.0 8.0 0.00 0.00 0.00 37 1036.2
20210925164341 56 293 8.0 9.0 0.00 0.00 0.00 38 1036.2
20210925163831 55 285 5.0 9.0 0.00 0.00 0.00 38 1036.2
20210925163327 55 304 5.0 11.0 0.00 0.00 0.00 37 1036.3
20210925162825 54 281 9.0 11.0 0.00 0.00 0.00 38 1036.3
20210925162324 54 283 2.0 9.0 0.00 0.00 0.00 38 1036.2
20210925161824 53 282 3.0 8.0 0.00 0.00 0.00 39 1036.6
20210925161322 53 251 7.0 10.0 0.00 0.00 0.00 38 1036.3
20210925160822 53 303 1.0 6.0 0.00 0.00 0.00 40 1036.3
20210925160321 53 254 5.0 7.0 0.00 0.00 0.00 40 1036.6
20210925155819 52 270 0.0 4.0 0.00 0.00 0.00 42 1036.3
20210925155318 52 263 1.0 3.0 0.00 0.00 0.00 41 1036.4
20210925154817 50 228 2.0 3.0 0.00 0.00 0.00 43 1036.4
20210925154316 50 357 3.0 4.0 0.00 0.00 0.00 43 1036.7
20210925153814 49 319 4.0 7.0 0.00 0.00 0.00 45 1036.7
20210925153314 49 290 2.0 5.0 0.00 0.00 0.00 44 1036.8
20210925152812 48 327 2.0 4.0 0.00 0.00 0.00 45 1036.7
20210925152310 48 327 3.0 5.0 0.00 0.00 0.00 46 1036.7
20210925151808 47 284 3.0 4.0 0.00 0.00 0.00 47 1036.7
20210925151307 49 308 2.0 2.0 0.00 0.00 0.00 44 1036.8
20210925150805 46 286 0.0 5.0 0.00 0.00 0.00 47 1036.7
20210925150305 45 324 2.0 6.0 0.00 0.00 0.00 49 1036.8
20210925145804 44 293 3.0 5.0 0.00 0.00 0.00 51 1037.0
20210925145306 43 275 2.0 5.0 0.00 0.00 0.00 52 1036.7
20210925144802 43 286 5.0 6.0 0.00 0.00 0.00 52 1037.0
20210925144258 42 262 2.0 4.0 0.00 0.00 0.00 53 1037.0
20210925143757 42 285 2.0 5.0 0.00 0.00 0.00 53 1036.7
20210925143254 41 281 3.0 5.0 0.00 0.00 0.00 54 1036.8
20210925142753 40 285 3.0 4.0 0.00 0.00 0.00 56 1036.8
20210925142251 40 297 4.0 6.0 0.00 0.00 0.00 57 1036.8
20210925141750 40 301 5.0 6.0 0.00 0.00 0.00 56 1036.6
20210925141249 39 231 2.0 2.0 0.00 0.00 0.00 55 1036.4
20210925140747 39 210 0.0 3.0 0.00 0.00 0.00 57 1036.6
20210925140247 37 270 1.0 2.0 0.00 0.00 0.00 58 1036.4
20210925135745 38 288 3.0 3.0 0.00 0.00 0.00 56 1036.6
20210925135243 39 342 1.0 3.0 0.00 0.00 0.00 55 1036.3
20210925134742 39 78 1.0 2.0 0.00 0.00 0.00 55 1036.4
20210925134241 40 42 3.0 3.0 0.00 0.00 0.00 54 1036.4
20210925133740 38 138 3.0 3.0 0.00 0.00 0.00 56 1036.4
20210925133236 40 70 3.0 3.0 0.00 0.00 0.00 52 1036.1
20210925132733 41 20 1.0 2.0 0.00 0.00 0.00 52 1036.2
20210925132232 40 20 3.0 4.0 0.00 0.00 0.00 53 1035.9
20210925131731 39 105 0.0 3.0 0.00 0.00 0.00 55 1036.1
20210925131230 37 115 2.0 3.0 0.00 0.00 0.00 59 1036.3
20210925130728 37 124 4.0 6.0 0.00 0.00 0.00 58 1036.2
20210925130228 40 19 3.0 4.0 0.00 0.00 0.00 53 1036.1
20210925125726 40 82 1.0 3.0 0.00 0.00 0.00 54 1035.9
20210925125222 40 102 3.0 3.0 0.00 0.00 0.00 53 1035.9
20210925124721 38 154 2.0 2.0 0.00 0.00 0.00 56 1035.8
20210925124220 39 345 0.0 0.0 0.00 0.00 0.00 55 1035.8
20210925123719 39 29 0.0 2.0 0.00 0.00 0.00 54 1035.5
20210925123217 39 96 0.0 3.0 0.00 0.00 0.00 55 1035.8
20210925122715 38 134 6.0 7.0 0.00 0.00 0.00 57 1035.7
20210925122214 37 102 6.0 6.0 0.00 0.00 0.00 57 1035.7
20210925121714 37 62 5.0 5.0 0.00 0.00 0.00 56 1035.7
20210925121211 38 63 3.0 4.0 0.00 0.00 0.00 55 1035.5
20210925120711 40 202 3.0 4.0 0.00 0.00 0.00 52 1035.7
20210925120210 38 198 3.0 3.0 0.00 0.00 0.00 57 1035.5
20210925115709 38 334 0.0 2.0 0.00 0.00 0.00 56 1035.5
20210925115204 39 315 2.0 4.0 0.00 0.00 0.00 54 1035.4
20210925114704 40 236 2.0 3.0 0.00 0.00 0.00 53 1035.4
20210925114203 41 354 1.0 2.0 0.00 0.00 0.00 52 1035.4
20210925113704 42 144 3.0 3.0 0.00 0.00 0.00 50 1035.5
20210925113202 40 197 2.0 2.0 0.00 0.00 0.00 53 1035.3
20210925112656 39 95 2.0 2.0 0.00 0.00 0.00 54 1035.3
20210925112154 39 105 0.0 2.0 0.00 0.00 0.00 54 1035.3
20210925111649 40 71 4.0 4.0 0.00 0.00 0.00 51 1034.9
20210925111148 42 203 0.0 0.0 0.00 0.00 0.00 50 1035.2
20210925110648 41 90 1.0 1.0 0.00 0.00 0.00 51 1035.0
20210925110147 41 114 0.0 0.0 0.00 0.00 0.00 52 1035.0
20210925105646 41 140 0.0 2.0 0.00 0.00 0.00 52 1035.0
20210925105140 41 26 2.0 2.0 0.00 0.00 0.00 51 1035.3
20210925104640 42 120 1.0 2.0 0.00 0.00 0.00 51 1034.9
20210925104141 40 123 2.0 4.0 0.00 0.00 0.00 53 1035.2
20210925103640 40 84 3.0 5.0 0.00 0.00 0.00 53 1035.3
20210925103139 41 38 4.0 4.0 0.00 0.00 0.00 51 1035.2
20210925102636 43 56 3.0 3.0 0.00 0.00 0.00 48 1035.0
20210925102135 43 69 1.0 1.0 0.00 0.00 0.00 50 1035.0
20210925101635 40 146 2.0 2.0 0.00 0.00 0.00 53 1034.8
20210925101134 40 69 3.0 3.0 0.00 0.00 0.00 52 1034.8
20210925100632 41 327 2.0 2.0 0.00 0.00 0.00 51 1035.0
20210925100132 42 201 2.0 3.0 0.00 0.00 0.00 51 1034.8
20210925095629 41 337 0.0 1.0 0.00 0.00 0.00 53 1034.9
20210925095128 41 336 2.0 2.0 0.00 0.00 0.00 52 1035.0
20210925094626 42 270 3.0 3.0 0.00 0.00 0.00 50 1034.6
20210925094125 42 278 1.0 2.0 0.00 0.00 0.00 50 1034.6
20210925093624 42 82 1.0 1.0 0.00 0.00 0.00 50 1034.8
20210925093123 42 78 1.0 2.0 0.00 0.00 0.00 50 1034.6
20210925092622 42 255 0.0 3.0 0.00 0.00 0.00 50 1034.6
20210925092121 44 245 3.0 3.0 0.00 0.00 0.00 48 1034.8
20210925091616 43 23 0.0 2.0 0.00 0.00 0.00 48 1034.6
20210925091115 44 82 1.0 2.0 0.00 0.00 0.00 47 1034.8
20210925090612 43 83 3.0 3.0 0.00 0.00 0.00 48 1034.5
20210925090112 44 90 2.0 3.0 0.00 0.00 0.00 48 1034.9
20210925085611 43 99 2.0 3.0 0.00 0.00 0.00 49 1034.6
20210925085110 42 69 3.0 4.0 0.00 0.00 0.00 49 1034.8
20210925084609 45 209 0.0 2.0 0.00 0.00 0.00 46 1034.6
20210925084107 45 7 0.0 2.0 0.00 0.00 0.00 46 1034.8
20210925083601 45 82 0.0 2.0 0.00 0.00 0.00 47 1034.8
20210925083101 44 60 0.0 2.0 0.00 0.00 0.00 48 1034.8
20210925082559 44 246 0.0 0.0 0.00 0.00 0.00 47 1034.5
20210925082057 44 15 0.0 0.0 0.00 0.00 0.00 48 1034.6
20210925081556 44 40 0.0 0.0 0.00 0.00 0.00 47 1034.5
20210925081056 45 60 1.0 3.0 0.00 0.00 0.00 46 1034.4
20210925080554 45 23 0.0 2.0 0.00 0.00 0.00 46 1034.5
20210925080052 45 74 0.0 2.0 0.00 0.00 0.00 46 1034.6
20210925075550 46 45 2.0 2.0 0.00 0.00 0.00 45 1034.4
20210925075048 47 194 0.0 3.0 0.00 0.00 0.00 43 1034.3
20210925074547 47 239 2.0 4.0 0.00 0.00 0.00 44 1034.6
20210925074045 47 246 1.0 2.0 0.00 0.00 0.00 44 1034.4
20210925073542 47 346 0.0 1.0 0.00 0.00 0.00 44 1034.6
20210925073040 48 101 0.0 2.0 0.00 0.00 0.00 43 1034.4
20210925072540 48 99 0.0 2.0 0.00 0.00 0.00 43 1034.3
20210925072039 47 90 2.0 3.0 0.00 0.00 0.00 44 1034.1
20210925071538 46 105 1.0 4.0 0.00 0.00 0.00 45 1034.1